Sable: Past 24 Hour Conditions

 

Banquereau - 44139

12:00 AM AST 26 January 2015Buoy position: 44.27N 57.08W
Disclaimer

This table is a summary of hourly weather conditions for the past 24 hours.
Please note that these observations might not always be representative of weather conditions over their associated marine area.

Date / Time
(AST)
Wind(knots) Wave height(m) Wave period(s) Pressure(kPa) Air tempC) Water tempC)
26 January 2015
0:00 WSW 19 gust 25 6.0 14.0 100.3 5 4
25 January 2015
23:00 WSW 19 gust 25 6.1 14.0 100.2 5 4
22:00 WSW 16 gust 21 6.7 12.0 100.2 5 4
21:00 SSW 12 gust 16 7.3 14.0 100.1 5 4
20:00 SW 14 gust 18 8.0 14.0 100.1 5 4
19:00 SW 18 gust 21 7.5 15.0 100.0 5 4
18:00 WSW 19 gust 27 7.7 14.0 100.0 5 4
17:00 WSW 21 gust 27 8.1 16.0 99.8 5 4
16:00 WSW 21 gust 29 9.0 16.0 99.7 4 4
15:00 WSW 27 gust 35 8.7 15.0 99.6 4 4
14:00 WSW 23 gust 29 8.9 14.0 99.5 5 4
13:00 WSW 27 gust 35 9.5 14.0 99.5 5 4
12:00 WSW 31 gust 39 8.7 14.0 99.4 5 4
11:00 WSW 29 gust 37 8.5 14.0 99.3 5 4
10:00 WSW 31 gust 41 7.9 14.0 99.2 6 4
9:00 SW 31 gust 39 8.0 14.0 98.8 7 4
8:00 SW 33 gust 43 8.8 12.0 98.5 10 4
7:00 S 33 gust 43 8.3 11.0 98.3 12 4
6:00 S 39 gust 51 7.0 12.0 98.2 12 4
5:00 SSE 37 gust 45 6.2 10.0 98.4 11 4
4:00 SSE 33 gust 43 5.4 10.0 98.6 10 4
3:00 SSE 33 gust 41 4.6 9.0 98.9 10 4
2:00 SSE 27 gust 35 4.1 8.0 99.2 9 4
1:00 N/A N/A N/A N/A N/A N/A
0:00 SE 27 gust 33 2.8 7.0 99.8 8 3
Map of Atlantic - Newfoundland marine weather areas Southwestern Grand Banks - 44138 Banquereau - 44139 Tail of the Bank - 44140 Nickerson Bank - 44251 Northeast Burgeo Bank - 44255 Blanc-Sablon Airport Cap Whittle Chevery Natashquan Airport Heath Point Miscou Island Grand Étang Ingonish Beach North Mountain St.Paul Island J.A. Douglas McCurdy Sydney Airport Charlottetown Airport East Point North Cape Argentia Bonavista Burgeo Cape Race Corner Brook Daniel's Harbour Englee Ferolle Point La Scie Port aux Basques Rocky Harbour Sagona Island St. Anthony Airport St. John's Int'l Airport St. Lawrence Stephenville Airport Twillingate Winterland Wreckhouse Cartwright Airport Mary's Harbour Grates Cove Pool's Island Marticot Island Long Pond Îles de la Madeleine Airport
Legend:
buoy Buoy
land station Land Station

Atlantic - Newfoundland Area

Another Region

What we are doing

Date modified: